createdAt,value
2019-04-26T00:00:20.266Z,1001.80
2019-04-26T00:01:20.257Z,1001.72
2019-04-26T00:02:20.243Z,1001.78
2019-04-26T00:03:20.234Z,1001.76
2019-04-26T00:04:20.246Z,1001.74
2019-04-26T00:05:20.209Z,1001.75
2019-04-26T00:06:20.188Z,1001.79
2019-04-26T00:07:20.713Z,1001.86
2019-04-26T00:08:20.168Z,1001.88
2019-04-26T00:09:20.201Z,1001.80
2019-04-26T00:10:20.157Z,1001.90
2019-04-26T00:11:20.144Z,1001.86
2019-04-26T00:12:20.143Z,1001.81
2019-04-26T00:13:20.123Z,1001.71
2019-04-26T00:14:20.122Z,1001.73
2019-04-26T00:15:20.097Z,1001.66
2019-04-26T00:16:21.033Z,1001.74
2019-04-26T00:17:20.124Z,1001.72
2019-04-26T00:18:20.959Z,1001.76
2019-04-26T00:19:21.284Z,1001.68
2019-04-26T00:20:21.091Z,1001.63
2019-04-26T00:21:20.035Z,1001.66
2019-04-26T00:22:20.018Z,1001.63
2019-04-26T00:23:20.010Z,1001.65
2019-04-26T00:24:20.025Z,1001.63
2019-04-26T00:25:19.987Z,1001.60
2019-04-26T00:26:19.990Z,1001.63
2019-04-26T00:27:19.964Z,1001.65
2019-04-26T00:28:21.121Z,1001.66
2019-04-26T00:29:19.950Z,1001.69
2019-04-26T00:30:19.998Z,1001.71
2019-04-26T00:31:19.934Z,1001.77
2019-04-26T00:32:19.905Z,1001.77
2019-04-26T00:33:19.898Z,1001.76
2019-04-26T00:34:19.890Z,1001.74
2019-04-26T00:35:19.988Z,1001.87
2019-04-26T00:36:20.790Z,1001.78
2019-04-26T00:37:20.210Z,1001.74
2019-04-26T00:38:20.374Z,1001.71
2019-04-26T00:39:20.335Z,1001.61
2019-04-26T00:40:20.327Z,1001.68
2019-04-26T00:41:20.605Z,1001.70
2019-04-26T00:42:20.632Z,1001.71
2019-04-26T00:43:20.570Z,1001.79
2019-04-26T00:44:20.801Z,1001.83
2019-04-26T00:45:20.874Z,1001.79
2019-04-26T00:46:20.885Z,1001.89
2019-04-26T00:47:19.754Z,1001.94
2019-04-26T00:48:19.740Z,1001.92
2019-04-26T00:49:19.733Z,1001.91
2019-04-26T00:50:19.750Z,1001.99
2019-04-26T00:51:19.705Z,1002.00
2019-04-26T00:52:19.694Z,1002.01
2019-04-26T00:53:19.714Z,1002.04
2019-04-26T00:54:20.131Z,1002.06
2019-04-26T00:55:19.715Z,1002.02
2019-04-26T00:56:20.152Z,1002.02
2019-04-26T00:57:20.322Z,1002.03
2019-04-26T00:58:20.437Z,1002.03
2019-04-26T00:59:20.496Z,1001.94
2019-04-26T01:00:19.644Z,1001.97
2019-04-26T01:01:20.696Z,1001.99
2019-04-26T01:02:20.586Z,1001.91
2019-04-26T01:03:20.622Z,1001.91
2019-04-26T01:04:19.564Z,1001.98
2019-04-26T01:05:19.583Z,1002.02
2019-04-26T01:06:19.591Z,1002.02
2019-04-26T01:07:19.532Z,1001.99
2019-04-26T01:08:19.520Z,1002.02
2019-04-26T01:09:19.546Z,1002.00
2019-04-26T01:10:19.720Z,1002.05
2019-04-26T01:11:19.737Z,1002.18
2019-04-26T01:12:19.768Z,1002.18
2019-04-26T01:13:19.934Z,1002.13
2019-04-26T01:14:19.982Z,1002.21
2019-04-26T01:15:21.445Z,1002.25
2019-04-26T01:16:20.197Z,1002.33
2019-04-26T01:17:20.338Z,1002.40
2019-04-26T01:18:20.201Z,1002.45
2019-04-26T01:19:20.278Z,1002.55
2019-04-26T01:20:20.356Z,1002.60
2019-04-26T01:21:20.536Z,1002.56
2019-04-26T01:22:19.417Z,1002.65
2019-04-26T01:23:19.356Z,1002.58
2019-04-26T01:24:19.404Z,1002.49
2019-04-26T01:25:19.360Z,1002.44
2019-04-26T01:26:19.348Z,1002.42
2019-04-26T01:27:19.563Z,1002.35
2019-04-26T01:28:19.693Z,1002.35
2019-04-26T01:29:19.653Z,1002.30
2019-04-26T01:30:19.655Z,1002.25
2019-04-26T01:31:19.950Z,1002.18
2019-04-26T01:32:20.303Z,1002.25
2019-04-26T01:33:20.126Z,1002.25
2019-04-26T01:34:20.303Z,1002.27
2019-04-26T01:36:20.564Z,1002.32
2019-04-26T01:37:19.661Z,1002.32
2019-04-26T01:38:19.253Z,1002.39
2019-04-26T01:39:19.680Z,1002.50
2019-04-26T01:40:19.819Z,1002.53
2019-04-26T01:41:19.798Z,1002.54
2019-04-26T01:42:20.842Z,1002.50
2019-04-26T01:43:20.213Z,1002.57
2019-04-26T01:44:20.172Z,1002.51
2019-04-26T01:45:20.186Z,1002.46
2019-04-26T01:46:19.106Z,1002.57
2019-04-26T01:47:20.034Z,1002.54
2019-04-26T01:48:19.082Z,1002.62
2019-04-26T01:50:20.984Z,1002.51
2019-04-26T01:51:21.116Z,1002.50
2019-04-26T01:52:19.057Z,1002.44
2019-04-26T01:53:19.025Z,1002.47
2019-04-26T01:54:19.005Z,1002.42
2019-04-26T01:55:19.009Z,1002.43
2019-04-26T01:56:18.994Z,1002.39
2019-04-26T01:57:19.006Z,1002.37
2019-04-26T01:58:18.980Z,1002.42
2019-04-26T01:59:18.958Z,1002.36
2019-04-26T02:00:18.947Z,1002.44
2019-04-26T02:01:18.946Z,1002.42
2019-04-26T02:02:18.965Z,1002.47
2019-04-26T02:03:18.926Z,1002.37
2019-04-26T02:04:18.899Z,1002.40
2019-04-26T02:05:18.924Z,1002.40
2019-04-26T02:06:25.279Z,1002.43
2019-04-26T02:07:19.899Z,1002.42
2019-04-26T02:08:18.866Z,1002.43
2019-04-26T02:09:18.875Z,1002.49
2019-04-26T02:10:18.837Z,1002.51
2019-04-26T02:11:18.813Z,1002.45
2019-04-26T02:12:18.834Z,1002.50
2019-04-26T02:13:18.831Z,1002.56
2019-04-26T02:14:18.791Z,1002.55
2019-04-26T02:15:18.834Z,1002.55
2019-04-26T02:16:18.765Z,1002.66
2019-04-26T02:17:18.756Z,1002.69
2019-04-26T02:18:18.782Z,1002.75
2019-04-26T02:19:18.786Z,1002.69
2019-04-26T02:20:18.723Z,1002.74
2019-04-26T02:21:18.716Z,1002.72
2019-04-26T02:22:18.701Z,1002.78
2019-04-26T02:23:18.764Z,1002.87
2019-04-26T02:24:18.688Z,1002.84
2019-04-26T02:25:18.660Z,1002.89
2019-04-26T02:26:18.653Z,1002.92
2019-04-26T02:27:18.635Z,1002.89
2019-04-26T02:28:18.668Z,1002.92
2019-04-26T02:29:18.624Z,1002.82
2019-04-26T02:30:18.619Z,1002.80
2019-04-26T02:31:18.593Z,1002.82
2019-04-26T02:32:18.597Z,1002.87
2019-04-26T02:33:18.573Z,1002.81
2019-04-26T02:34:18.596Z,1002.74
2019-04-26T02:35:18.562Z,1002.66
2019-04-26T02:36:18.554Z,1002.79
2019-04-26T02:37:18.535Z,1002.83
2019-04-26T02:38:18.536Z,1002.86
2019-04-26T02:39:18.534Z,1002.91
2019-04-26T02:40:18.506Z,1002.94
2019-04-26T02:41:18.499Z,1002.86
2019-04-26T02:42:18.490Z,1002.75
2019-04-26T02:43:18.469Z,1002.67
2019-04-26T02:44:21.845Z,1002.64
2019-04-26T02:45:18.439Z,1002.72
2019-04-26T02:46:18.456Z,1002.68
2019-04-26T02:47:18.441Z,1002.77
2019-04-26T02:48:18.420Z,1002.74
2019-04-26T02:49:18.430Z,1002.79
2019-04-26T02:50:18.394Z,1002.85
2019-04-26T02:51:18.380Z,1002.86
2019-04-26T02:52:18.371Z,1002.93
2019-04-26T02:53:18.358Z,1002.94
2019-04-26T02:54:18.388Z,1002.98
2019-04-26T02:55:18.330Z,1002.98
2019-04-26T02:56:18.345Z,1002.93
2019-04-26T02:57:18.307Z,1002.93
2019-04-26T02:58:18.315Z,1002.87
2019-04-26T02:59:18.334Z,1002.84
2019-04-26T03:00:18.307Z,1002.77
2019-04-26T03:01:18.268Z,1002.75
2019-04-26T03:02:18.270Z,1002.65
2019-04-26T03:03:18.241Z,1002.80
2019-04-26T03:04:18.442Z,1002.80
2019-04-26T03:05:18.256Z,1002.92
2019-04-26T03:06:18.219Z,1002.90
2019-04-26T03:07:18.207Z,1002.93
2019-04-26T03:09:19.239Z,1002.92
2019-04-26T03:10:18.401Z,1002.83
2019-04-26T03:11:18.172Z,1002.77
2019-04-26T03:12:18.274Z,1002.83
2019-04-26T03:13:18.149Z,1002.78
2019-04-26T03:14:18.130Z,1002.76
2019-04-26T03:15:18.159Z,1002.75
2019-04-26T03:17:19.167Z,1002.66
2019-04-26T03:18:18.082Z,1002.61
2019-04-26T03:19:18.069Z,1002.55
2019-04-26T03:20:19.099Z,1002.55
2019-04-26T03:21:18.069Z,1002.40
2019-04-26T03:22:18.048Z,1002.34
2019-04-26T03:23:18.028Z,1002.29
2019-04-26T03:24:18.018Z,1002.32
2019-04-26T03:25:18.030Z,1002.36
2019-04-26T03:26:18.010Z,1002.35
2019-04-26T03:27:17.985Z,1002.47
2019-04-26T03:28:17.974Z,1002.43
2019-04-26T03:29:17.957Z,1002.38
2019-04-26T03:30:21.729Z,1002.38
2019-04-26T03:31:19.284Z,1002.33
2019-04-26T03:33:19.012Z,1002.30
2019-04-26T03:35:19.007Z,1002.40
2019-04-26T03:36:17.920Z,1002.43
2019-04-26T03:37:20.861Z,1002.53
2019-04-26T03:38:17.873Z,1002.50
2019-04-26T03:39:17.851Z,1002.63
2019-04-26T03:40:17.873Z,1002.68
2019-04-26T03:41:17.824Z,1002.68
2019-04-26T03:42:17.834Z,1002.76
2019-04-26T03:43:17.868Z,1002.82
2019-04-26T03:44:17.795Z,1002.88
2019-04-26T03:45:17.775Z,1002.91
2019-04-26T03:46:17.809Z,1002.93
2019-04-26T03:47:17.755Z,1002.95
2019-04-26T03:49:18.786Z,1003.00
2019-04-26T03:50:17.752Z,1002.95
2019-04-26T03:51:17.737Z,1002.97
2019-04-26T03:52:17.717Z,1002.96
2019-04-26T03:53:17.689Z,1002.95
2019-04-26T03:54:17.710Z,1002.94
2019-04-26T03:55:17.673Z,1002.93
2019-04-26T03:56:17.709Z,1002.96
2019-04-26T03:57:17.653Z,1002.99
2019-04-26T03:58:17.639Z,1003.03
2019-04-26T03:59:17.639Z,1003.09
2019-04-26T04:00:17.622Z,1003.12
2019-04-26T04:01:17.642Z,1003.12
2019-04-26T04:02:17.614Z,1003.10
2019-04-26T04:03:17.583Z,1003.12
2019-04-26T04:04:17.576Z,1003.17
2019-04-26T04:05:17.566Z,1003.15
2019-04-26T04:06:17.582Z,1003.22
2019-04-26T04:07:17.534Z,1003.24
2019-04-26T04:08:17.535Z,1003.24
2019-04-26T04:09:18.161Z,1003.26
2019-04-26T04:10:17.524Z,1003.22
2019-04-26T04:11:17.519Z,1003.23
2019-04-26T04:12:17.511Z,1003.21
2019-04-26T04:13:17.465Z,1003.20
2019-04-26T04:14:17.555Z,1003.17
2019-04-26T04:15:17.461Z,1003.15
2019-04-26T04:16:17.483Z,1003.09
2019-04-26T04:17:17.427Z,1003.08
2019-04-26T04:19:18.458Z,1003.09
2019-04-26T04:20:17.412Z,1003.08
2019-04-26T04:21:17.375Z,1003.08
2019-04-26T04:22:17.396Z,1003.09
2019-04-26T04:23:17.355Z,1003.05
2019-04-26T04:24:17.351Z,1003.09
2019-04-26T04:25:17.336Z,1003.15
2019-04-26T04:26:17.331Z,1003.18
2019-04-26T04:27:17.336Z,1003.17
2019-04-26T04:28:17.309Z,1003.16
2019-04-26T04:29:17.294Z,1003.09
2019-04-26T04:30:17.310Z,1003.08
2019-04-26T04:31:17.265Z,1002.97
2019-04-26T04:32:17.314Z,1002.92
2019-04-26T04:33:17.258Z,1002.94
2019-04-26T04:34:17.244Z,1002.99
2019-04-26T04:35:17.250Z,1003.00
2019-04-26T04:36:17.224Z,1003.05
2019-04-26T04:37:17.248Z,1003.11
2019-04-26T04:38:17.192Z,1003.12
2019-04-26T04:39:17.181Z,1003.20
2019-04-26T04:40:17.175Z,1003.20
2019-04-26T04:41:17.190Z,1003.17
2019-04-26T04:42:17.183Z,1003.28
2019-04-26T04:43:17.337Z,1003.22
2019-04-26T04:44:17.170Z,1003.28
2019-04-26T04:45:17.115Z,1003.30
2019-04-26T04:47:24.654Z,1003.31
2019-04-26T04:48:18.120Z,1003.34
2019-04-26T04:49:17.064Z,1003.40
2019-04-26T04:51:18.096Z,1003.45
2019-04-26T04:52:17.067Z,1003.52
2019-04-26T04:53:17.026Z,1003.52
2019-04-26T04:54:17.044Z,1003.55
2019-04-26T04:55:17.003Z,1003.66
2019-04-26T04:56:17.005Z,1003.64
2019-04-26T04:57:16.994Z,1003.70
2019-04-26T04:58:17.172Z,1003.69
2019-04-26T04:59:16.984Z,1003.69
2019-04-26T05:00:16.958Z,1003.69
2019-04-26T05:01:16.959Z,1003.68
2019-04-26T05:02:16.949Z,1003.69
2019-04-26T05:03:16.935Z,1003.72
2019-04-26T05:04:16.908Z,1003.66
2019-04-26T05:05:16.889Z,1003.67
2019-04-26T05:06:16.882Z,1003.61
2019-04-26T05:07:16.866Z,1003.57
2019-04-26T05:08:16.888Z,1003.63
2019-04-26T05:09:16.844Z,1003.61
2019-04-26T05:10:16.837Z,1003.57
2019-04-26T05:11:16.822Z,1003.57
2019-04-26T05:12:16.820Z,1003.56
2019-04-26T05:13:16.831Z,1003.51
2019-04-26T05:14:16.848Z,1003.45
2019-04-26T05:15:16.800Z,1003.38
2019-04-26T05:16:16.773Z,1003.39
2019-04-26T05:17:16.756Z,1003.37
2019-04-26T05:18:16.761Z,1003.36
2019-04-26T05:19:16.762Z,1003.38
2019-04-26T05:20:16.780Z,1003.43
2019-04-26T05:21:16.710Z,1003.42
2019-04-26T05:22:16.707Z,1003.42
2019-04-26T05:23:16.688Z,1003.50
2019-04-26T05:24:16.683Z,1003.54
2019-04-26T05:25:16.700Z,1003.55
2019-04-26T05:26:16.663Z,1003.58
2019-04-26T05:27:16.638Z,1003.57
2019-04-26T05:28:16.644Z,1003.62
2019-04-26T05:29:16.621Z,1003.60
2019-04-26T05:30:16.661Z,1003.63
2019-04-26T05:31:16.606Z,1003.69
2019-04-26T05:32:16.593Z,1003.70
2019-04-26T05:33:16.604Z,1003.73
2019-04-26T05:34:16.573Z,1003.79
2019-04-26T05:35:16.578Z,1003.82
2019-04-26T05:36:16.549Z,1003.80
2019-04-26T05:37:16.541Z,1003.85
2019-04-26T05:38:18.499Z,1003.83
2019-04-26T05:39:16.521Z,1003.86
2019-04-26T05:40:16.540Z,1003.86
2019-04-26T05:41:16.484Z,1003.87
2019-04-26T05:42:16.523Z,1003.89
2019-04-26T05:43:16.470Z,1003.86
2019-04-26T05:44:16.459Z,1003.92
2019-04-26T05:45:16.443Z,1003.90
2019-04-26T05:47:17.520Z,1003.82
2019-04-26T05:49:17.758Z,1003.83
2019-04-26T05:50:16.387Z,1003.82
2019-04-26T05:51:16.371Z,1003.88
2019-04-26T05:52:16.368Z,1003.87
2019-04-26T05:53:16.352Z,1003.83
2019-04-26T05:54:16.379Z,1003.82
2019-04-26T05:55:16.330Z,1003.82
2019-04-26T05:56:16.323Z,1003.82
2019-04-26T05:57:16.323Z,1003.83
2019-04-26T05:58:16.307Z,1003.85
2019-04-26T05:59:16.310Z,1003.81
2019-04-26T06:00:16.293Z,1003.86
2019-04-26T06:01:16.311Z,1003.87
2019-04-26T06:03:17.319Z,1003.94
2019-04-26T06:04:16.248Z,1003.98
2019-04-26T06:05:16.254Z,1004.03
2019-04-26T06:06:16.238Z,1003.97
2019-04-26T06:07:16.198Z,1003.96
2019-04-26T06:08:16.231Z,1003.99
2019-04-26T06:09:16.170Z,1003.98
2019-04-26T06:10:16.187Z,1003.98
2019-04-26T06:11:16.173Z,1003.99
2019-04-26T06:12:16.140Z,1004.02
2019-04-26T06:13:16.127Z,1004.01
2019-04-26T06:14:16.119Z,1004.06
2019-04-26T06:15:16.140Z,1004.05
2019-04-26T06:16:16.139Z,1004.11
2019-04-26T06:17:16.093Z,1004.08
2019-04-26T06:18:16.077Z,1004.09
2019-04-26T06:19:16.062Z,1004.09
2019-04-26T06:20:23.256Z,1004.07
2019-04-26T06:21:17.043Z,1004.15
2019-04-26T06:22:16.090Z,1004.10
2019-04-26T06:23:16.045Z,1004.14
2019-04-26T06:24:16.016Z,1004.15
2019-04-26T06:25:16.020Z,1004.10
2019-04-26T06:26:15.990Z,1004.13
2019-04-26T06:27:15.982Z,1004.10
2019-04-26T06:28:15.987Z,1004.07
2019-04-26T06:29:15.981Z,1004.11
2019-04-26T06:30:15.976Z,1004.13
2019-04-26T06:31:15.950Z,1004.11
2019-04-26T06:32:16.037Z,1004.11
2019-04-26T06:33:15.910Z,1004.10
2019-04-26T06:34:16.953Z,1004.08
2019-04-26T06:35:15.901Z,1004.11
2019-04-26T06:36:16.975Z,1004.08
2019-04-26T06:37:15.866Z,1004.18
2019-04-26T06:38:15.871Z,1004.22
2019-04-26T06:39:15.865Z,1004.18
2019-04-26T06:40:15.875Z,1004.20
2019-04-26T06:41:15.818Z,1004.24
2019-04-26T06:42:15.812Z,1004.28
2019-04-26T06:43:15.819Z,1004.28
2019-04-26T06:44:15.837Z,1004.25
2019-04-26T06:45:15.772Z,1004.30
2019-04-26T06:46:15.791Z,1004.32
2019-04-26T06:47:15.752Z,1004.28
2019-04-26T06:48:15.764Z,1004.30
2019-04-26T06:49:15.764Z,1004.31
2019-04-26T06:50:15.726Z,1004.21
2019-04-26T06:51:24.317Z,1004.26
2019-04-26T06:52:16.699Z,1004.18
2019-04-26T06:53:15.693Z,1004.16
2019-04-26T06:54:15.703Z,1004.20
2019-04-26T06:55:15.671Z,1004.22
2019-04-26T06:56:15.654Z,1004.20
2019-04-26T06:57:15.659Z,1004.26
2019-04-26T06:58:15.651Z,1004.28
2019-04-26T06:59:17.273Z,1004.34
2019-04-26T07:00:15.607Z,1004.38
2019-04-26T07:01:15.604Z,1004.41
2019-04-26T07:02:15.619Z,1004.40
2019-04-26T07:03:15.588Z,1004.43
2019-04-26T07:04:15.828Z,1004.47
2019-04-26T07:05:15.596Z,1004.52
2019-04-26T07:06:15.545Z,1004.51
2019-04-26T07:07:15.563Z,1004.56
2019-04-26T07:08:15.565Z,1004.54
2019-04-26T07:09:15.539Z,1004.61
2019-04-26T07:10:15.518Z,1004.69
2019-04-26T07:11:15.491Z,1004.70
2019-04-26T07:12:15.484Z,1004.61
2019-04-26T07:13:15.471Z,1004.66
2019-04-26T07:14:15.482Z,1004.75
2019-04-26T07:15:28.013Z,1004.74
2019-04-26T07:16:22.825Z,1004.79
2019-04-26T07:17:16.433Z,1004.74
2019-04-26T07:18:15.415Z,1004.72
2019-04-26T07:19:16.431Z,1004.72
2019-04-26T07:20:15.381Z,1004.65
2019-04-26T07:21:16.391Z,1004.65
2019-04-26T07:22:15.367Z,1004.59
2019-04-26T07:23:15.476Z,1004.57
2019-04-26T07:24:15.390Z,1004.54
2019-04-26T07:25:17.738Z,1004.48
2019-04-26T07:26:15.428Z,1004.48
2019-04-26T07:27:15.464Z,1004.47
2019-04-26T07:28:15.505Z,1004.53
2019-04-26T07:29:15.529Z,1004.47
2019-04-26T07:30:15.544Z,1004.51
2019-04-26T07:31:15.302Z,1004.50
2019-04-26T07:32:15.311Z,1004.49
2019-04-26T07:33:15.353Z,1004.39
2019-04-26T07:34:15.261Z,1004.43
2019-04-26T07:35:15.369Z,1004.43
2019-04-26T07:36:15.252Z,1004.37
2019-04-26T07:38:16.265Z,1004.44
2019-04-26T07:39:19.932Z,1004.49
2019-04-26T07:40:16.168Z,1004.53
2019-04-26T07:41:15.179Z,1004.59
2019-04-26T07:42:15.149Z,1004.72
2019-04-26T07:43:15.140Z,1004.81
2019-04-26T07:44:15.197Z,1004.85
2019-04-26T07:45:15.123Z,1004.91
2019-04-26T07:46:15.104Z,1004.93
2019-04-26T07:47:15.462Z,1004.97
2019-04-26T07:48:15.075Z,1004.99
2019-04-26T07:49:15.107Z,1004.99
2019-04-26T07:50:15.062Z,1005.07
2019-04-26T07:51:15.051Z,1005.07
2019-04-26T07:52:15.036Z,1005.10
2019-04-26T07:53:15.035Z,1005.02
2019-04-26T07:54:15.067Z,1005.02
2019-04-26T07:55:15.070Z,1005.08
2019-04-26T07:56:15.011Z,1005.09
2019-04-26T07:57:14.982Z,1005.12
2019-04-26T07:58:14.978Z,1005.09
2019-04-26T07:59:14.995Z,1005.05
2019-04-26T08:00:15.454Z,1005.08
2019-04-26T08:01:14.944Z,1005.03
2019-04-26T08:02:15.907Z,1005.00
2019-04-26T08:03:15.162Z,1005.00
2019-04-26T08:04:14.941Z,1004.97
2019-04-26T08:05:14.909Z,1004.98
2019-04-26T08:06:14.883Z,1005.00
2019-04-26T08:07:15.334Z,1004.92
2019-04-26T08:08:15.043Z,1004.92
2019-04-26T08:09:26.521Z,1004.96
2019-04-26T08:10:15.841Z,1004.98
2019-04-26T08:11:15.076Z,1004.98
2019-04-26T08:12:14.828Z,1005.02
2019-04-26T08:13:15.218Z,1005.02
2019-04-26T08:14:14.831Z,1005.06
2019-04-26T08:15:15.683Z,1005.04
2019-04-26T08:16:14.794Z,1005.12
2019-04-26T08:17:14.972Z,1005.19
2019-04-26T08:18:15.276Z,1005.18
2019-04-26T08:19:14.775Z,1005.23
2019-04-26T08:20:15.493Z,1005.27
2019-04-26T08:21:17.369Z,1005.29
2019-04-26T08:22:20.466Z,1005.31
2019-04-26T08:23:37.179Z,1005.29
2019-04-26T08:24:16.700Z,1005.33
2019-04-26T08:25:17.528Z,1005.37
2019-04-26T08:26:15.527Z,1005.30
2019-04-26T08:27:22.829Z,1005.36
2019-04-26T08:28:16.489Z,1005.34
2019-04-26T08:29:14.758Z,1005.35
2019-04-26T08:30:17.783Z,1005.41
2019-04-26T08:31:15.531Z,1005.43
2019-04-26T08:32:15.610Z,1005.45
2019-04-26T08:33:16.159Z,1005.51
2019-04-26T08:34:14.578Z,1005.49
2019-04-26T08:35:18.849Z,1005.55
2019-04-26T08:36:15.555Z,1005.51
2019-04-26T08:37:15.655Z,1005.55
2019-04-26T08:38:21.949Z,1005.54
2019-04-26T08:39:15.920Z,1005.59
2019-04-26T08:40:23.215Z,1005.62
2019-04-26T08:41:15.566Z,1005.60
2019-04-26T08:42:21.222Z,1005.60
2019-04-26T08:43:15.495Z,1005.60
2019-04-26T08:44:14.573Z,1005.62
2019-04-26T08:45:15.261Z,1005.63
2019-04-26T08:46:14.497Z,1005.55
2019-04-26T08:47:21.023Z,1005.64
2019-04-26T08:48:15.432Z,1005.65
2019-04-26T08:49:15.161Z,1005.62
2019-04-26T08:50:15.200Z,1005.64
2019-04-26T08:51:15.372Z,1005.68
2019-04-26T08:52:15.388Z,1005.58
2019-04-26T08:53:14.384Z,1005.69
2019-04-26T08:54:14.389Z,1005.69
2019-04-26T08:55:14.362Z,1005.76
2019-04-26T08:56:15.326Z,1005.68
2019-04-26T08:57:14.361Z,1005.73
2019-04-26T08:58:14.326Z,1005.74
2019-04-26T08:59:14.320Z,1005.75
2019-04-26T09:00:15.465Z,1005.78
2019-04-26T09:01:14.303Z,1005.78
2019-04-26T09:02:14.313Z,1005.79
2019-04-26T09:03:14.288Z,1005.77
2019-04-26T09:04:14.266Z,1005.74
2019-04-26T09:05:14.282Z,1005.70
2019-04-26T09:06:14.243Z,1005.67
2019-04-26T09:07:14.277Z,1005.66
2019-04-26T09:08:14.229Z,1005.53
2019-04-26T09:09:17.739Z,1005.45
2019-04-26T09:10:14.202Z,1005.39
2019-04-26T09:11:25.556Z,1005.26
2019-04-26T09:12:22.882Z,1005.29
2019-04-26T09:13:15.183Z,1005.20
2019-04-26T09:14:14.169Z,1005.30
2019-04-26T09:15:14.149Z,1005.33
2019-04-26T09:16:14.238Z,1005.46
2019-04-26T09:17:14.120Z,1005.51
2019-04-26T09:19:15.160Z,1005.60
2019-04-26T09:20:14.094Z,1005.72
2019-04-26T09:21:17.609Z,1005.70
2019-04-26T09:22:14.119Z,1005.74
2019-04-26T09:23:14.047Z,1005.78
2019-04-26T09:24:14.064Z,1005.80
2019-04-26T09:25:14.041Z,1005.71
2019-04-26T09:26:14.114Z,1005.71
2019-04-26T09:27:17.224Z,1005.74
2019-04-26T09:28:15.004Z,1005.70
2019-04-26T09:29:13.995Z,1005.80
2019-04-26T09:30:13.990Z,1005.81
2019-04-26T09:31:15.361Z,1005.82
2019-04-26T09:32:15.000Z,1005.80
2019-04-26T09:33:14.033Z,1005.80
2019-04-26T09:34:13.954Z,1005.79
2019-04-26T09:35:15.291Z,1005.85
2019-04-26T09:36:13.912Z,1005.79
2019-04-26T09:37:13.928Z,1005.80
2019-04-26T09:38:13.901Z,1005.89
2019-04-26T09:39:13.870Z,1005.79
2019-04-26T09:40:20.960Z,1005.86
2019-04-26T09:41:14.852Z,1005.84
2019-04-26T09:42:13.875Z,1005.88
2019-04-26T09:43:15.051Z,1005.93
2019-04-26T09:44:13.847Z,1005.98
2019-04-26T09:45:13.817Z,1005.96
2019-04-26T09:46:13.802Z,1005.92
2019-04-26T09:47:13.835Z,1005.98
2019-04-26T09:48:13.785Z,1005.92
2019-04-26T09:49:13.765Z,1005.88
2019-04-26T09:50:15.491Z,1005.93
2019-04-26T09:51:13.749Z,1005.93
2019-04-26T09:52:13.760Z,1005.91
2019-04-26T09:53:13.751Z,1005.89
2019-04-26T09:54:15.389Z,1005.88
2019-04-26T09:55:13.698Z,1005.85
2019-04-26T09:56:13.699Z,1005.91
2019-04-26T09:57:13.678Z,1005.89
2019-04-26T09:58:13.700Z,1005.84
2019-04-26T09:59:13.660Z,1005.89
2019-04-26T10:00:14.305Z,1005.80
2019-04-26T10:01:13.646Z,1005.83
2019-04-26T10:02:13.636Z,1005.89
2019-04-26T10:03:13.665Z,1005.85
2019-04-26T10:04:13.611Z,1005.83
2019-04-26T10:05:13.662Z,1005.89
2019-04-26T10:06:13.594Z,1005.82
2019-04-26T10:07:13.565Z,1005.89
2019-04-26T10:08:14.537Z,1005.82
2019-04-26T10:09:13.562Z,1005.79
2019-04-26T10:10:22.816Z,1005.77
2019-04-26T10:11:14.562Z,1005.82
2019-04-26T10:12:13.520Z,1005.76
2019-04-26T10:13:15.065Z,1005.68
2019-04-26T10:14:13.497Z,1005.70
2019-04-26T10:15:13.496Z,1005.71
2019-04-26T10:16:13.485Z,1005.68
2019-04-26T10:17:15.643Z,1005.72
2019-04-26T10:18:13.502Z,1005.75
2019-04-26T10:19:13.453Z,1005.68
2019-04-26T10:20:13.444Z,1005.67
2019-04-26T10:21:13.449Z,1005.66
2019-04-26T10:22:13.438Z,1005.67
2019-04-26T10:23:13.430Z,1005.71
2019-04-26T10:24:13.401Z,1005.71
2019-04-26T10:25:16.772Z,1005.73
2019-04-26T10:26:13.384Z,1005.79
2019-04-26T10:27:13.354Z,1005.73
2019-04-26T10:28:15.903Z,1005.75
2019-04-26T10:29:13.331Z,1005.77
2019-04-26T10:30:13.337Z,1005.75
2019-04-26T10:31:13.474Z,1005.78
2019-04-26T10:32:13.357Z,1005.85
2019-04-26T10:33:13.313Z,1005.83
2019-04-26T10:34:13.282Z,1005.82
2019-04-26T10:35:13.299Z,1005.80
2019-04-26T10:36:13.260Z,1005.76
2019-04-26T10:37:13.266Z,1005.68
2019-04-26T10:38:13.283Z,1005.75
2019-04-26T10:39:13.250Z,1005.71
2019-04-26T10:40:13.291Z,1005.68
2019-04-26T10:41:13.198Z,1005.72
2019-04-26T10:42:13.197Z,1005.76
2019-04-26T10:43:13.187Z,1005.76
2019-04-26T10:44:13.221Z,1005.73
2019-04-26T10:45:14.675Z,1005.76
2019-04-26T10:46:13.170Z,1005.72
2019-04-26T10:47:15.661Z,1005.84
2019-04-26T10:48:13.925Z,1005.79
2019-04-26T10:49:13.139Z,1005.77
2019-04-26T10:50:13.110Z,1005.80
2019-04-26T10:51:13.092Z,1005.80
2019-04-26T10:52:15.860Z,1005.78
2019-04-26T10:53:13.086Z,1005.80
2019-04-26T10:54:13.092Z,1005.93
2019-04-26T10:55:16.095Z,1005.87
2019-04-26T10:57:14.090Z,1005.94
2019-04-26T10:58:13.038Z,1005.98
2019-04-26T10:59:13.029Z,1005.97
2019-04-26T11:00:14.161Z,1005.90
2019-04-26T11:01:12.984Z,1005.99
2019-04-26T11:02:13.001Z,1005.98
2019-04-26T11:03:12.985Z,1005.96
2019-04-26T11:04:12.989Z,1006.01
2019-04-26T11:05:18.305Z,1006.01
2019-04-26T11:06:13.944Z,1006.03
2019-04-26T11:07:12.963Z,1006.05
2019-04-26T11:08:12.920Z,1006.06
2019-04-26T11:09:12.921Z,1006.04
2019-04-26T11:10:12.930Z,1006.10
2019-04-26T11:11:12.881Z,1006.16
2019-04-26T11:12:12.884Z,1006.09
2019-04-26T11:13:12.858Z,1006.09
2019-04-26T11:14:12.912Z,1006.10
2019-04-26T11:15:12.847Z,1006.03
2019-04-26T11:16:12.824Z,1006.08
2019-04-26T11:17:16.039Z,1006.07
2019-04-26T11:18:12.862Z,1006.14
2019-04-26T11:19:12.828Z,1006.12
2019-04-26T11:20:12.805Z,1006.07
2019-04-26T11:21:16.519Z,1006.04
2019-04-26T11:22:13.781Z,1006.13
2019-04-26T11:23:12.926Z,1006.12
2019-04-26T11:24:15.111Z,1006.04
2019-04-26T11:25:13.751Z,1006.08
2019-04-26T11:26:12.728Z,1006.00
2019-04-26T11:27:12.703Z,1005.98
2019-04-26T11:28:12.696Z,1006.00
2019-04-26T11:29:12.731Z,1005.96
2019-04-26T11:30:20.330Z,1005.92
2019-04-26T11:31:13.659Z,1005.94
2019-04-26T11:32:12.664Z,1005.94
2019-04-26T11:33:12.823Z,1005.85
2019-04-26T11:34:12.634Z,1005.88
2019-04-26T11:35:12.660Z,1005.88
2019-04-26T11:36:12.609Z,1005.91
2019-04-26T11:37:13.464Z,1005.99
2019-04-26T11:38:12.590Z,1005.94
2019-04-26T11:39:12.599Z,1005.95
2019-04-26T11:40:14.605Z,1005.93
2019-04-26T11:41:12.563Z,1005.94
2019-04-26T11:42:13.230Z,1005.96
2019-04-26T11:43:15.854Z,1005.91
2019-04-26T11:44:13.524Z,1005.87
2019-04-26T11:45:14.631Z,1005.91
2019-04-26T11:46:12.520Z,1005.94
2019-04-26T11:47:12.500Z,1005.87
2019-04-26T11:48:12.486Z,1005.90
2019-04-26T11:49:12.475Z,1005.84
2019-04-26T11:50:16.043Z,1005.86
2019-04-26T11:51:12.486Z,1005.92
2019-04-26T11:52:12.442Z,1005.96
2019-04-26T11:53:12.433Z,1005.96
2019-04-26T11:54:12.420Z,1006.03
2019-04-26T11:55:14.781Z,1006.01
2019-04-26T11:56:12.434Z,1006.09
2019-04-26T11:57:13.575Z,1006.03
2019-04-26T11:58:12.395Z,1006.05
2019-04-26T11:59:12.362Z,1005.96
2019-04-26T12:00:12.362Z,1005.94
2019-04-26T12:01:12.370Z,1005.99
2019-04-26T12:02:15.915Z,1005.97
2019-04-26T12:03:12.318Z,1006.00
2019-04-26T12:04:12.314Z,1006.02
2019-04-26T12:05:12.330Z,1006.00
2019-04-26T12:06:13.313Z,1006.01
2019-04-26T12:07:12.272Z,1006.05
2019-04-26T12:08:12.265Z,1006.03
2019-04-26T12:09:12.271Z,1006.07
2019-04-26T12:10:12.240Z,1006.03
2019-04-26T12:11:18.185Z,1006.05
2019-04-26T12:12:14.317Z,1006.06
2019-04-26T12:13:12.263Z,1005.98
2019-04-26T12:14:20.034Z,1006.04
2019-04-26T12:15:13.183Z,1006.04
2019-04-26T12:16:14.539Z,1006.01
2019-04-26T12:17:13.155Z,1006.04
2019-04-26T12:19:14.279Z,1006.11
2019-04-26T12:20:12.126Z,1006.16
2019-04-26T12:21:12.167Z,1006.15
2019-04-26T12:22:12.118Z,1006.17